Time;durP1;ratioP1;P1;durP2;ratioP2;P2;SDS_P1;SDS_P2;PMS_P1;PMS_P2;Temp;Humidity;BMP_temperature;BMP_pressure;BME280_temperature;BME280_humidity;BME280_pressure;Samples;Min_cycle;Max_cycle;Signal;HPM_P1;HPM_P2
2022/06/10 00:00:30;;;;;;;2.90;0.72;;;;;;;17.09;100.00;99289.86;1694040;82;21064;-54
2022/06/10 00:02:58;;;;;;;3.15;0.80;;;;;;;17.04;100.00;99294.30;1695163;82;20957;-56
2022/06/10 00:05:27;;;;;;;2.05;0.70;;;;;;;16.96;100.00;99296.30;1691817;82;20988;-54
2022/06/10 00:07:53;;;;;;;11.22;1.12;;;;;;;16.90;100.00;99293.22;1690681;82;21106;-54
2022/06/10 00:10:22;;;;;;;5.50;0.80;;;;;;;16.88;100.00;99300.13;1701511;83;20984;-53
2022/06/10 00:12:50;;;;;;;0.82;0.70;;;;;;;16.86;100.00;99303.46;1697803;82;20964;-55
2022/06/10 00:15:18;;;;;;;0.85;0.80;;;;;;;16.81;100.00;99300.76;1690138;82;20988;-54
2022/06/10 00:17:45;;;;;;;2.83;0.90;;;;;;;16.76;100.00;99301.64;1697709;82;20898;-53
2022/06/10 00:20:14;;;;;;;1.30;0.68;;;;;;;16.69;100.00;99304.45;1690846;82;21506;-56
2022/06/10 00:22:40;;;;;;;1.02;0.60;;;;;;;16.60;100.00;99300.09;1691111;83;20898;-54
2022/06/10 00:25:08;;;;;;;3.60;0.70;;;;;;;16.54;100.00;99300.59;1686128;83;20965;-54
2022/06/10 00:27:34;;;;;;;2.15;0.70;;;;;;;16.51;100.00;99301.31;1685381;82;20953;-53
2022/06/10 00:30:01;;;;;;;1.10;0.70;;;;;;;16.52;100.00;99300.33;1682351;82;20997;-53
2022/06/10 00:32:27;;;;;;;1.60;0.70;;;;;;;16.55;100.00;99295.53;1689209;82;21691;-53
2022/06/10 00:34:54;;;;;;;1.57;0.75;;;;;;;16.56;100.00;99301.34;1681580;82;20948;-54
2022/06/10 00:37:20;;;;;;;3.95;0.88;;;;;;;16.56;100.00;99298.63;1688898;82;20929;-54
2022/06/10 00:39:48;;;;;;;1.22;0.70;;;;;;;16.57;100.00;99299.49;1684838;83;20961;-54
2022/06/10 00:42:15;;;;;;;2.37;0.70;;;;;;;16.55;100.00;99302.33;1688251;83;21064;-53
2022/06/10 00:44:46;;;;;;;0.88;0.70;;;;;;;16.51;100.00;99306.25;1683848;82;21349;-56
2022/06/10 00:47:27;;;;;;;1.10;0.78;;;;;;;16.47;100.00;99302.56;1685279;82;20957;-53
2022/06/10 00:50:04;;;;;;;1.75;0.70;;;;;;;16.42;100.00;99306.12;1687764;83;21384;-51
2022/06/10 00:52:35;;;;;;;1.87;0.70;;;;;;;16.35;100.00;99309.82;1684505;82;21071;-53
2022/06/10 00:55:03;;;;;;;1.70;0.70;;;;;;;16.24;100.00;99309.33;1684265;82;21668;-56
2022/06/10 00:57:34;;;;;;;2.22;0.60;;;;;;;16.15;100.00;99311.41;1681641;83;21739;-53
2022/06/10 01:00:15;;;;;;;1.12;0.60;;;;;;;16.08;100.00;99305.19;1683304;82;21660;-57
2022/06/10 01:02:42;;;;;;;0.60;0.60;;;;;;;16.04;100.00;99310.50;1685081;83;21080;-51
2022/06/10 01:05:14;;;;;;;0.62;0.60;;;;;;;16.03;100.00;99302.84;1683681;82;21532;-53
2022/06/10 01:07:44;;;;;;;0.60;0.60;;;;;;;16.04;100.00;99310.00;1679165;83;21004;-57
2022/06/10 01:10:13;;;;;;;1.00;0.80;;;;;;;16.03;100.00;99306.91;1681904;83;22028;-53
2022/06/10 01:13:24;;;;;;;3.05;0.70;;;;;;;16.04;100.00;99311.36;1727550;80;21586;-53
2022/06/10 01:16:02;;;;;;;2.45;0.70;;;;;;;16.02;100.00;99311.97;1730762;80;20956;-53
2022/06/10 01:18:48;;;;;;;0.70;0.70;;;;;;;15.97;100.00;99311.47;1729608;80;21408;-51
2022/06/10 01:21:38;;;;;;;1.92;0.80;;;;;;;15.93;100.00;99317.23;1725624;80;21061;-53
2022/06/10 01:24:30;;;;;;;0.70;0.60;;;;;;;15.87;100.00;99318.09;1711201;80;21790;-54
2022/06/10 01:29:59;;;;;;;2.55;0.72;;;;;;;15.77;100.00;99314.34;1726669;80;21061;-51
2022/06/10 01:33:08;;;;;;;3.50;0.70;;;;;;;15.73;100.00;99320.14;1733218;80;21113;-52
2022/06/10 01:36:04;;;;;;;3.90;0.60;;;;;;;15.67;100.00;99315.16;1667615;83;22013;-53
2022/06/10 01:38:50;;;;;;;0.72;0.57;;;;;;;15.62;100.00;99322.30;1725583;80;22494;-54
2022/06/10 01:42:08;;;;;;;2.27;0.60;;;;;;;15.61;100.00;99319.21;1733149;80;21089;-52
2022/06/10 01:45:16;;;;;;;1.22;0.60;;;;;;;15.59;100.00;99323.88;1726248;80;21081;-54
2022/06/10 01:48:01;;;;;;;0.80;0.70;;;;;;;15.57;100.00;99325.00;1735375;80;21096;-53
2022/06/10 01:50:49;;;;;;;4.67;0.70;;;;;;;15.54;100.00;99327.44;1730860;80;21148;-53
2022/06/10 01:53:39;;;;;;;2.80;0.80;;;;;;;15.48;100.00;99324.64;1727346;80;21504;-56
2022/06/10 01:56:18;;;;;;;1.20;0.80;;;;;;;15.43;100.00;99321.42;1728731;80;21054;-56
2022/06/10 01:58:49;;;;;;;1.62;0.60;;;;;;;15.33;100.00;99321.73;1727117;80;21129;-56
2022/06/10 02:01:20;;;;;;;3.33;0.70;;;;;;;15.33;100.00;99321.73;1728705;80;21086;-56
2022/06/10 02:03:56;;;;;;;2.05;0.60;;;;;;;15.33;100.00;99319.02;1727540;80;21355;-56
2022/06/10 02:06:35;;;;;;;1.15;0.60;;;;;;;15.40;100.00;99323.00;1732750;80;20996;-55
2022/06/10 02:09:11;;;;;;;2.15;0.60;;;;;;;15.46;100.00;99329.34;1727962;80;21079;-56
2022/06/10 02:11:40;;;;;;;0.85;0.60;;;;;;;15.54;100.00;99333.36;1733470;80;21082;-56
2022/06/10 02:14:15;;;;;;;3.52;0.80;;;;;;;15.56;100.00;99330.05;1731917;80;21366;-56
2022/06/10 02:16:45;;;;;;;3.08;0.82;;;;;;;15.58;100.00;99332.99;1730890;80;21046;-56
2022/06/10 02:19:29;;;;;;;2.47;0.72;;;;;;;15.61;100.00;99332.77;1731703;80;21706;-55
2022/06/10 02:22:01;;;;;;;1.72;0.60;;;;;;;15.65;100.00;99338.85;1735405;80;21053;-56
2022/06/10 02:24:45;;;;;;;1.32;0.70;;;;;;;15.69;100.00;99341.20;1742006;80;21039;-56
2022/06/10 02:27:22;;;;;;;5.92;0.90;;;;;;;15.73;100.00;99345.92;1740451;80;21638;-55
2022/06/10 02:30:21;;;;;;;4.22;1.07;;;;;;;15.73;100.00;99345.92;1740319;79;21295;-55
2022/06/10 02:32:48;;;;;;;0.65;0.60;;;;;;;15.74;100.00;99347.13;1739197;79;21297;-56
2022/06/10 02:35:15;;;;;;;1.50;0.60;;;;;;;15.77;100.00;99341.48;1742393;80;21035;-56
2022/06/10 02:38:06;;;;;;;1.87;0.60;;;;;;;15.78;100.00;99343.22;1738933;80;21047;-56
2022/06/10 02:40:50;;;;;;;7.20;0.62;;;;;;;15.79;100.00;99349.52;1743286;80;21082;-55
2022/06/10 02:43:34;;;;;;;2.05;0.60;;;;;;;15.83;100.00;99346.44;1741521;80;21081;-56
2022/06/10 02:46:15;;;;;;;0.50;0.50;;;;;;;15.86;100.00;99342.63;1742994;80;21268;-55
2022/06/10 02:49:07;;;;;;;1.55;0.53;;;;;;;15.89;100.00;99349.20;1746881;79;21051;-55
2022/06/10 02:51:36;;;;;;;1.32;0.60;;;;;;;15.93;100.00;99348.45;1743065;80;21046;-55
2022/06/10 02:54:07;;;;;;;2.00;0.60;;;;;;;15.95;100.00;99353.28;1745431;80;21066;-56
2022/06/10 02:56:35;;;;;;;1.27;0.60;;;;;;;15.97;100.00;99344.05;1740617;80;21090;-56
2022/06/10 03:02:20;;;;;;;2.15;0.60;;;;;;;15.94;100.00;99344.76;1742790;80;20927;-56
2022/06/10 03:05:12;;;;;;;0.82;0.60;;;;;;;15.96;100.00;99347.73;1745712;80;21473;-55
2022/06/10 03:08:04;;;;;;;0.90;0.50;;;;;;;16.02;100.00;99338.25;1744425;79;20955;-56
2022/06/10 03:11:12;;;;;;;1.45;0.50;;;;;;;16.08;100.00;99346.77;1744967;80;20979;-55
2022/06/10 03:14:08;;;;;;;2.10;0.90;;;;;;;16.18;100.00;99349.65;1744918;80;21699;-55
2022/06/10 03:16:59;;;;;;;1.70;0.78;;;;;;;16.32;100.00;99355.38;1743553;80;20872;-55
2022/06/10 03:19:58;;;;;;;2.10;0.60;;;;;;;16.46;100.00;99350.59;1746846;80;21422;-55
2022/06/10 03:22:50;;;;;;;0.90;0.60;;;;;;;16.58;100.00;99344.70;1739058;80;20916;-55
2022/06/10 03:25:41;;;;;;;0.95;0.68;;;;;;;16.69;100.00;99343.36;1691148;81;20963;-55
2022/06/10 03:28:51;;;;;;;0.60;0.50;;;;;;;16.78;100.00;99347.20;1741963;80;21298;-55
2022/06/10 03:31:35;;;;;;;1.82;0.60;;;;;;;16.86;100.00;99350.16;1740823;80;21542;-55
2022/06/10 03:34:07;;;;;;;1.57;0.60;;;;;;;16.95;100.00;99347.58;1735249;80;21074;-55
2022/06/10 03:36:33;;;;;;;0.60;0.60;;;;;;;17.06;100.00;99342.63;1744110;80;20880;-55
2022/06/10 03:39:01;;;;;;;3.55;0.60;;;;;;;17.16;100.00;99343.63;1746976;80;20970;-55
2022/06/10 03:41:35;;;;;;;1.77;0.57;;;;;;;17.26;100.00;99346.45;1749490;80;21792;-56
2022/06/10 03:44:05;;;;;;;0.72;0.70;;;;;;;17.37;100.00;99345.92;1738561;80;20927;-56
2022/06/10 03:46:33;;;;;;;1.30;0.60;;;;;;;17.50;100.00;99346.28;1743617;80;20912;-56
2022/06/10 03:49:05;;;;;;;2.35;0.90;;;;;;;17.62;100.00;99342.06;1718582;80;20967;-56
2022/06/10 03:51:32;;;;;;;1.55;0.88;;;;;;;17.76;100.00;99350.45;1742844;80;21339;-56
2022/06/10 03:53:59;;;;;;;0.98;0.68;;;;;;;17.89;100.00;99351.13;1741709;80;21521;-56
2022/06/10 03:56:25;;;;;;;5.80;1.05;;;;;;;18.02;100.00;99346.88;1740095;80;21552;-55
2022/06/10 03:58:52;;;;;;;5.37;0.70;;;;;;;18.14;100.00;99341.73;1745601;80;21048;-56
2022/06/10 04:01:19;;;;;;;2.15;0.70;;;;;;;18.25;100.00;99343.05;1741103;80;21054;-55
2022/06/10 04:03:45;;;;;;;2.98;0.62;;;;;;;18.36;100.00;99346.21;1740676;80;21030;-57
2022/06/10 04:06:13;;;;;;;3.40;0.60;;;;;;;18.44;100.00;99343.69;1742782;80;21109;-51
2022/06/10 04:08:40;;;;;;;1.42;0.88;;;;;;;18.51;100.00;99345.73;1742387;80;21122;-54
2022/06/10 04:11:08;;;;;;;5.03;0.68;;;;;;;18.59;100.00;99349.19;1742332;80;21563;-51
2022/06/10 04:13:35;;;;;;;1.00;0.70;;;;;;;18.67;100.00;99345.78;1741283;80;21137;-55
2022/06/10 04:16:02;;;;;;;2.95;0.60;;;;;;;18.73;100.00;99351.55;1740427;80;21118;-54
2022/06/10 04:18:29;;;;;;;0.70;0.60;;;;;;;18.81;100.00;99349.02;1741041;80;21109;-57
2022/06/10 04:23:06;;;;;;;3.67;0.60;;;;;;;18.99;100.00;99353.34;1778840;78;29546;-53
2022/06/10 04:25:36;;;;;;;3.60;0.60;;;;;;;19.04;100.00;99362.48;1769771;79;21420;-52
2022/06/10 04:28:04;;;;;;;2.05;0.70;;;;;;;19.12;100.00;99362.66;1764183;79;21408;-52
2022/06/10 04:30:40;;;;;;;2.65;0.70;;;;;;;19.21;100.00;99357.75;1772677;79;22064;-52
2022/06/10 04:33:08;;;;;;;2.33;0.60;;;;;;;19.29;100.00;99363.38;1755790;79;20954;-54
2022/06/10 04:35:35;;;;;;;2.92;0.70;;;;;;;19.39;100.00;99363.41;1772295;79;21009;-53
2022/06/10 04:38:01;;;;;;;1.25;0.60;;;;;;;19.49;100.00;99367.05;1769864;79;20922;-53
2022/06/10 04:40:29;;;;;;;7.03;0.85;;;;;;;19.55;100.00;99367.38;1757665;80;21783;-53
2022/06/10 04:42:56;;;;;;;6.45;0.70;;;;;;;19.62;100.00;99373.99;1763335;79;20973;-52
2022/06/10 04:45:27;;;;;;;2.62;0.80;;;;;;;19.70;100.00;99372.42;1767122;79;20912;-55
2022/06/10 04:47:58;;;;;;;2.47;0.72;;;;;;;19.78;100.00;99369.84;1763235;79;20947;-54
2022/06/10 04:50:24;;;;;;;2.98;0.70;;;;;;;19.86;100.00;99376.33;1763418;79;20882;-55
2022/06/10 04:52:51;;;;;;;2.45;0.70;;;;;;;19.94;100.00;99380.58;1771258;79;21257;-50
2022/06/10 04:55:19;;;;;;;1.52;0.72;;;;;;;20.03;100.00;99380.23;1740713;80;21036;-53
2022/06/10 04:57:46;;;;;;;1.37;0.62;;;;;;;20.11;100.00;99385.84;1767454;79;20996;-56
2022/06/10 05:00:18;;;;;;;3.90;0.60;;;;;;;20.21;100.00;99388.08;1769773;79;21144;-52
2022/06/10 05:02:45;;;;;;;5.45;0.70;;;;;;;20.30;100.00;99389.95;1763629;79;21103;-52
2022/06/10 05:05:11;;;;;;;0.93;0.70;;;;;;;20.39;100.00;99386.38;1763251;78;21091;-53
2022/06/10 05:07:38;;;;;;;1.75;0.80;;;;;;;20.48;100.00;99386.52;1754196;79;21060;-53
2022/06/10 05:10:06;;;;;;;7.47;1.25;;;;;;;20.60;100.00;99385.34;1768085;80;21034;-53
2022/06/10 05:12:34;;;;;;;4.08;0.80;;;;;;;20.70;100.00;99386.19;1761150;79;21093;-57
2022/06/10 05:15:01;;;;;;;7.17;0.90;;;;;;;20.82;100.00;99386.39;1742468;80;21092;-53
2022/06/10 05:17:29;;;;;;;4.90;0.90;;;;;;;20.95;100.00;99387.42;1762074;80;21227;-54
2022/06/10 05:19:55;;;;;;;4.70;0.90;;;;;;;21.07;100.00;99390.35;1763446;79;21077;-53
2022/06/10 05:22:22;;;;;;;3.67;0.90;;;;;;;21.19;100.00;99393.78;1766974;79;21069;-55
2022/06/10 05:24:49;;;;;;;2.83;0.88;;;;;;;21.31;100.00;99396.19;1764636;78;21846;-54
2022/06/10 05:27:15;;;;;;;14.28;1.20;;;;;;;21.42;100.00;99397.88;1769806;79;21013;-58
2022/06/10 05:29:43;;;;;;;11.20;1.60;;;;;;;21.54;100.00;99399.39;1765128;79;21790;-57
2022/06/10 05:32:10;;;;;;;5.40;1.02;;;;;;;21.64;100.00;99402.08;1755836;79;21132;-57
2022/06/10 05:34:46;;;;;;;2.62;1.00;;;;;;;21.73;100.00;99406.64;1758802;79;21507;-55
2022/06/10 05:37:15;;;;;;;4.28;1.02;;;;;;;21.80;100.00;99401.77;1728742;80;21045;-54
2022/06/10 05:39:41;;;;;;;2.75;0.90;;;;;;;21.87;100.00;99405.61;1760162;79;21083;-56
2022/06/10 05:42:09;;;;;;;1.10;0.90;;;;;;;21.94;100.00;99403.64;1765840;79;21460;-54
2022/06/10 05:44:45;;;;;;;5.97;0.93;;;;;;;22.03;100.00;99412.34;1769204;78;21080;-53
2022/06/10 05:47:15;;;;;;;4.47;0.88;;;;;;;22.10;100.00;99413.44;1772697;79;21079;-56
2022/06/10 05:49:44;;;;;;;2.08;1.10;;;;;;;22.16;100.00;99417.79;1758438;79;20977;-55
2022/06/10 05:52:11;;;;;;;5.03;1.07;;;;;;;22.21;100.00;99411.31;1754258;79;21026;-59
2022/06/10 05:54:43;;;;;;;2.77;0.90;;;;;;;22.28;100.00;99417.57;1729240;80;21753;-55
2022/06/10 05:57:10;;;;;;;2.42;0.90;;;;;;;22.36;100.00;99419.02;1773710;79;20981;-54
2022/06/10 05:59:37;;;;;;;3.60;1.07;;;;;;;22.42;100.00;99416.50;1757110;80;21115;-53
2022/06/10 06:02:08;;;;;;;4.47;0.90;;;;;;;22.51;100.00;99421.05;1765082;79;21096;-57
2022/06/10 06:04:36;;;;;;;3.98;1.00;;;;;;;22.59;100.00;99414.77;1760054;80;21542;-56
2022/06/10 06:07:04;;;;;;;5.95;1.30;;;;;;;22.67;100.00;99416.71;1753198;79;21585;-56
2022/06/10 06:09:30;;;;;;;1.02;0.80;;;;;;;22.77;100.00;99423.02;1762396;79;21027;-53
2022/06/10 06:11:57;;;;;;;2.77;1.40;;;;;;;22.86;100.00;99423.42;1754202;79;21066;-56
2022/06/10 06:14:28;;;;;;;2.27;1.00;;;;;;;22.94;100.00;99419.37;1768561;79;21211;-55
2022/06/10 06:16:58;;;;;;;1.50;0.80;;;;;;;23.01;100.00;99418.56;1760852;79;21056;-59
2022/06/10 06:19:27;;;;;;;7.80;0.90;;;;;;;23.10;100.00;99419.98;1772500;79;21263;-57
2022/06/10 06:21:54;;;;;;;3.52;0.90;;;;;;;23.19;100.00;99417.14;1755645;79;21094;-55
2022/06/10 06:24:21;;;;;;;0.95;0.75;;;;;;;23.29;100.00;99416.52;1762256;80;21562;-56
2022/06/10 06:26:47;;;;;;;2.67;0.90;;;;;;;23.38;100.00;99414.16;1683389;82;21116;-55
2022/06/10 06:29:14;;;;;;;3.10;1.00;;;;;;;23.50;100.00;99416.13;1702838;82;21086;-55
2022/06/10 06:31:41;;;;;;;5.12;1.47;;;;;;;23.59;100.00;99419.27;1733937;80;21613;-57
2022/06/10 06:34:09;;;;;;;1.98;0.80;;;;;;;23.70;100.00;99416.23;1690994;83;21179;-58
2022/06/10 06:36:45;;;;;;;2.92;0.93;;;;;;;23.82;100.00;99421.44;1702832;83;21093;-55
2022/06/10 06:39:13;;;;;;;1.85;1.05;;;;;;;23.92;100.00;99427.63;1692064;82;21089;-55
2022/06/10 06:41:40;;;;;;;2.20;1.10;;;;;;;24.03;100.00;99421.83;1733718;81;21516;-55
2022/06/10 06:44:08;;;;;;;3.25;1.10;;;;;;;24.16;100.00;99420.82;1698111;82;22231;-53
2022/06/10 06:46:36;;;;;;;1.98;1.10;;;;;;;24.28;100.00;99426.91;1736647;81;21486;-54
2022/06/10 06:49:05;;;;;;;3.75;1.37;;;;;;;24.39;100.00;99422.47;1699602;82;21760;-56
2022/06/10 06:51:32;;;;;;;1.75;1.12;;;;;;;24.48;100.00;99426.44;1737969;80;21120;-56
2022/06/10 06:53:59;;;;;;;6.45;1.20;;;;;;;24.58;100.00;99430.92;1707136;81;21057;-60
2022/06/10 06:56:28;;;;;;;4.95;1.10;;;;;;;24.66;100.00;99430.92;1707012;83;22330;-54
2022/06/10 06:58:56;;;;;;;3.02;1.15;;;;;;;24.75;100.00;99436.23;1692267;83;21451;-57
2022/06/10 07:01:23;;;;;;;3.70;1.12;;;;;;;24.85;100.00;99436.92;1696950;82;21066;-55
2022/06/10 07:03:50;;;;;;;5.05;1.65;;;;;;;24.93;100.00;99441.59;1700834;82;21045;-58
2022/06/10 07:06:16;;;;;;;13.08;2.25;;;;;;;24.99;100.00;99441.44;1702337;82;21073;-55
2022/06/10 07:08:44;;;;;;;6.67;1.25;;;;;;;25.03;100.00;99441.42;1711195;82;21112;-57
2022/06/10 07:11:11;;;;;;;3.95;1.25;;;;;;;25.07;100.00;99440.05;1710663;82;21037;-55
2022/06/10 07:13:38;;;;;;;4.45;1.45;;;;;;;25.08;100.00;99444.02;1704512;81;21530;-57
2022/06/10 07:16:05;;;;;;;9.05;1.67;;;;;;;25.07;100.00;99443.67;1695339;82;21492;-52
2022/06/10 07:18:33;;;;;;;4.20;1.60;;;;;;;25.05;100.00;99446.24;1713892;82;21657;-54
2022/06/10 07:21:00;;;;;;;7.83;1.40;;;;;;;25.02;100.00;99450.70;1736620;81;21794;-57
2022/06/10 07:23:27;;;;;;;2.50;1.15;;;;;;;25.01;100.00;99444.89;1740480;81;20990;-54
2022/06/10 07:25:54;;;;;;;8.65;1.70;;;;;;;25.05;100.00;99450.38;1722154;81;20950;-54
2022/06/10 07:28:21;;;;;;;2.52;1.22;;;;;;;25.09;100.00;99448.49;1713407;82;21053;-53
2022/06/10 07:30:49;;;;;;;2.75;1.27;;;;;;;25.17;100.00;99445.73;1697115;82;20978;-55
2022/06/10 07:33:16;;;;;;;2.65;1.00;;;;;;;25.28;100.00;99453.26;1697291;82;21816;-56
2022/06/10 07:35:44;;;;;;;2.65;1.45;;;;;;;25.36;100.00;99443.08;1732018;81;20978;-54
2022/06/10 07:38:11;;;;;;;2.17;1.10;;;;;;;25.47;100.00;99450.98;1724106;81;21105;-57
2022/06/10 07:43:27;;;;;;;2.85;1.35;;;;;;;25.67;100.00;99452.87;1738449;81;21053;-56
2022/06/10 07:45:54;;;;;;;7.35;1.27;;;;;;;25.76;100.00;99448.19;1736490;81;21520;-55
2022/06/10 07:48:22;;;;;;;5.17;1.30;;;;;;;25.83;100.00;99454.19;1737370;81;20974;-57
2022/06/10 07:50:49;;;;;;;3.33;1.30;;;;;;;25.91;100.00;99451.91;1732105;81;21571;-56
2022/06/10 07:53:16;;;;;;;3.20;1.00;;;;;;;25.99;100.00;99452.73;1728187;80;21061;-57
2022/06/10 07:55:47;;;;;;;2.42;1.10;;;;;;;26.08;100.00;99451.31;1733865;80;21081;-54
2022/06/10 07:58:15;;;;;;;2.98;1.10;;;;;;;26.16;100.00;99459.54;1722918;81;21226;-58
2022/06/10 08:00:42;;;;;;;1.40;0.95;;;;;;;26.24;100.00;99461.73;1687549;83;21157;-55
2022/06/10 08:03:08;;;;;;;2.02;0.90;;;;;;;26.33;100.00;99462.06;1708773;82;21051;-56
2022/06/10 08:05:35;;;;;;;2.95;1.22;;;;;;;26.39;100.00;99453.56;1701766;82;21273;-56
2022/06/10 08:08:03;;;;;;;4.08;1.05;;;;;;;26.48;100.00;99464.03;1707073;81;21120;-55
2022/06/10 08:10:34;;;;;;;3.65;1.40;;;;;;;26.54;100.00;99459.19;1719010;81;21065;-56
2022/06/10 08:13:04;;;;;;;8.80;1.40;;;;;;;26.59;100.00;99452.06;1711141;81;21025;-57
2022/06/10 08:15:33;;;;;;;4.00;1.30;;;;;;;26.67;100.00;99452.52;1710063;81;21492;-57
2022/06/10 08:17:59;;;;;;;2.75;1.67;;;;;;;26.74;100.00;99454.36;1712720;81;21084;-61
2022/06/10 08:23:16;;;;;;;3.58;1.57;;;;;;;26.83;100.00;99455.67;1702836;81;21275;-55
2022/06/10 08:25:43;;;;;;;3.92;1.35;;;;;;;26.89;100.00;99444.73;1691333;82;21049;-56
2022/06/10 08:28:10;;;;;;;8.63;2.45;;;;;;;26.98;100.00;99453.84;1736523;81;21179;-53
2022/06/10 08:30:37;;;;;;;3.47;2.62;;;;;;;27.06;100.00;99457.39;1722876;81;21387;-59
2022/06/10 08:33:04;;;;;;;3.52;3.00;;;;;;;27.14;100.00;99457.83;1697900;81;21140;-54
2022/06/10 08:35:32;;;;;;;4.05;3.58;;;;;;;27.21;100.00;99449.68;1700082;82;21212;-57
2022/06/10 08:38:01;;;;;;;5.03;3.70;;;;;;;27.30;100.00;99455.46;1701528;82;21102;-54
2022/06/10 08:40:55;;;;;;;4.85;3.05;;;;;;;27.35;100.00;99446.07;1710309;82;21052;-53
2022/06/10 08:43:43;;;;;;;5.55;3.90;;;;;;;27.44;100.00;99445.80;1728957;81;21039;-56
2022/06/10 08:46:50;;;;;;;17.25;6.25;;;;;;;27.52;100.00;99442.08;1702288;82;21060;-56
2022/06/10 08:49:40;;;;;;;12.68;5.58;;;;;;;27.55;100.00;99442.27;1692711;83;21322;-55
2022/06/10 08:52:38;;;;;;;8.80;5.03;;;;;;;27.51;100.00;99445.89;1667594;81;21064;-55
2022/06/10 08:55:47;;;;;;;5.50;4.72;;;;;;;27.45;100.00;99453.57;1706325;82;21097;-54
2022/06/10 08:58:28;;;;;;;13.70;4.92;;;;;;;27.40;100.00;99444.97;1696580;82;21140;-57
2022/06/10 09:01:03;;;;;;;7.20;5.47;;;;;;;27.41;100.00;99453.59;1700021;83;21468;-55
2022/06/10 09:03:51;;;;;;;5.75;5.03;;;;;;;27.47;100.00;99457.88;1706469;83;21156;-57
2022/06/10 09:06:28;;;;;;;5.60;3.52;;;;;;;27.55;100.00;99454.19;1706857;82;21006;-54
2022/06/10 09:08:58;;;;;;;4.78;3.95;;;;;;;27.64;100.00;99454.44;1701856;83;21130;-56
2022/06/10 09:11:51;;;;;;;6.15;4.50;;;;;;;27.72;100.00;99448.81;1706466;83;21038;-56
2022/06/10 09:14:23;;;;;;;10.43;4.30;;;;;;;27.78;100.00;99449.42;1740694;80;21076;-53
2022/06/10 09:17:00;;;;;;;6.55;3.02;;;;;;;27.85;100.00;99448.12;1710734;81;21265;-54
2022/06/10 09:19:48;;;;;;;5.45;3.17;;;;;;;27.93;100.00;99458.22;1729364;81;22541;-57
2022/06/10 09:22:40;;;;;;;6.15;3.17;;;;;;;27.99;100.00;99457.44;1693279;83;21563;-53
2022/06/10 09:25:27;;;;;;;5.35;3.22;;;;;;;28.07;100.00;99451.27;1699798;82;21121;-54
2022/06/10 09:27:56;;;;;;;4.08;2.55;;;;;;;28.15;100.00;99455.34;1701048;82;21477;-55
2022/06/10 09:30:43;;;;;;;4.65;2.98;;;;;;;28.21;100.00;99455.98;1703975;82;21113;-53
2022/06/10 09:33:27;;;;;;;2.90;2.60;;;;;;;28.28;100.00;99459.34;1727612;81;21034;-55
2022/06/10 09:36:11;;;;;;;7.72;3.20;;;;;;;28.34;100.00;99453.02;1728493;81;21083;-54
2022/06/10 09:38:41;;;;;;;;;;;;;;;28.41;100.00;99449.27;1733070;81;21057;-53
2022/06/10 09:41:30;;;;;;;7.95;3.70;;;;;;;28.48;100.00;99457.67;1711282;82;20337;-55
2022/06/10 09:44:06;;;;;;;4.60;3.22;;;;;;;28.50;100.00;99464.71;1702702;82;21269;-55
2022/06/10 09:46:45;;;;;;;5.95;3.72;;;;;;;28.49;100.00;99461.64;1710739;82;21430;-55
2022/06/10 09:50:00;;;;;;;6.70;3.08;;;;;;;28.47;100.00;99471.19;1711793;82;21547;-53
2022/06/10 09:52:32;;;;;;;5.40;3.17;;;;;;;28.41;100.00;99467.82;1716538;81;21149;-58
2022/06/10 09:55:29;;;;;;;4.85;3.62;;;;;;;28.30;100.00;99467.80;1707712;82;21038;-54
2022/06/10 09:58:17;;;;;;;3.20;2.90;;;;;;;28.21;100.00;99468.43;1704546;83;21170;-55
2022/06/10 10:01:04;;;;;;;3.25;2.60;;;;;;;28.14;100.00;99470.23;1691937;82;21406;-55
2022/06/10 10:03:58;;;;;;;5.05;3.00;;;;;;;28.12;100.00;99475.61;1700684;81;21065;-58
2022/06/10 10:06:36;;;;;;;6.95;3.25;;;;;;;28.07;100.00;99469.81;1696744;81;21071;-56
2022/06/10 10:09:36;;;;;;;5.47;2.37;;;;;;;28.01;100.00;99476.09;1720251;81;21086;-56
2022/06/10 10:12:24;;;;;;;6.92;3.85;;;;;;;28.04;100.00;99476.58;1718970;81;21307;-59
2022/06/10 10:15:32;;;;;;;4.28;2.47;;;;;;;28.11;100.00;99480.81;1702419;82;21006;-55
2022/06/10 10:18:22;;;;;;;3.15;2.60;;;;;;;28.16;100.00;99478.34;1735927;81;21094;-55
2022/06/10 10:20:58;;;;;;;3.02;2.72;;;;;;;28.19;100.00;99473.81;1720396;81;20894;-58
2022/06/10 10:23:32;;;;;;;2.87;2.37;;;;;;;28.24;100.00;99473.56;1703024;82;20983;-55
2022/06/10 10:25:59;;;;;;;8.55;2.55;;;;;;;28.30;100.00;99476.09;1680282;83;21010;-54
2022/06/10 10:28:33;;;;;;;5.95;2.00;;;;;;;28.36;100.00;99479.98;1695905;81;21075;-57
2022/06/10 10:31:25;;;;;;;2.83;2.27;;;;;;;28.39;100.00;99479.61;1693998;81;21630;-56
2022/06/10 10:33:51;;;;;;;4.78;2.47;;;;;;;28.42;100.00;99470.37;1714784;81;20995;-58
2022/06/10 10:36:32;;;;;;;4.08;2.25;;;;;;;28.42;100.00;99474.52;1695242;82;21083;-56
2022/06/10 10:39:17;;;;;;;1.98;1.80;;;;;;;28.45;100.00;99466.36;1734986;81;22471;-54
2022/06/10 10:41:47;;;;;;;2.02;1.80;;;;;;;28.51;100.00;99466.95;1718343;81;21726;-56
2022/06/10 10:44:34;;;;;;;3.45;1.80;;;;;;;28.56;100.00;99463.09;1699626;82;21313;-55
2022/06/10 10:47:16;;;;;;;2.90;2.10;;;;;;;28.57;100.00;99470.34;1714856;81;21105;-54
2022/06/10 10:49:57;;;;;;;3.47;2.25;;;;;;;28.54;100.00;99464.66;1723425;81;21737;-59
2022/06/10 10:52:38;;;;;;;7.60;2.50;;;;;;;28.44;100.00;99466.89;1712352;81;21164;-57
2022/06/10 10:55:16;;;;;;;3.67;3.02;;;;;;;28.37;100.00;99462.33;1714994;81;21133;-58
2022/06/10 10:57:47;;;;;;;3.05;2.55;;;;;;;28.40;100.00;99466.96;1723670;81;21101;-54
2022/06/10 11:00:25;;;;;;;2.83;2.42;;;;;;;28.46;100.00;99464.79;1733425;81;21095;-55
2022/06/10 11:02:54;;;;;;;5.10;2.85;;;;;;;28.51;100.00;99462.28;1732480;81;21499;-53
2022/06/10 11:05:47;;;;;;;3.35;2.50;;;;;;;28.56;100.00;99450.63;1735607;81;21085;-57
2022/06/10 11:08:25;;;;;;;6.78;2.45;;;;;;;28.62;100.00;99452.60;1730904;81;21646;-53
2022/06/10 11:11:08;;;;;;;12.30;3.52;;;;;;;28.67;100.00;99455.62;1732494;81;21200;-57
2022/06/10 11:13:45;;;;;;;3.37;2.92;;;;;;;28.71;100.00;99463.03;1737720;81;22700;-55
2022/06/10 11:16:35;;;;;;;4.90;2.87;;;;;;;28.73;100.00;99454.00;1728046;81;21132;-55
2022/06/10 11:19:37;;;;;;;7.08;3.22;;;;;;;28.77;100.00;99453.95;1737286;81;21682;-53
2022/06/10 11:22:19;;;;;;;23.05;4.33;;;;;;;28.80;100.00;99454.95;1712734;81;21142;-54
2022/06/10 11:25:03;;;;;;;4.28;2.98;;;;;;;28.87;100.00;99455.87;1715851;82;21072;-55
2022/06/10 11:27:37;;;;;;;12.35;3.45;;;;;;;28.90;100.00;99448.56;1706253;81;21681;-56
2022/06/10 11:30:13;;;;;;;4.55;2.72;;;;;;;28.93;100.00;99439.83;1722951;80;21053;-53
2022/06/10 11:33:00;;;;;;;4.72;3.90;;;;;;;28.94;100.00;99444.31;1718009;81;22353;-54
2022/06/10 11:35:39;;;;;;;5.00;3.45;;;;;;;28.94;100.00;99438.25;1725912;81;21025;-53
2022/06/10 11:38:26;;;;;;;6.58;3.02;;;;;;;28.93;100.00;99437.92;1703252;83;21065;-55
2022/06/10 11:40:57;;;;;;;6.20;3.58;;;;;;;28.93;100.00;99442.07;1693468;82;21087;-54
2022/06/10 11:43:46;;;;;;;9.30;3.67;;;;;;;28.93;100.00;99439.83;1700759;82;21104;-58
2022/06/10 11:46:31;;;;;;;4.33;3.30;;;;;;;28.92;100.00;99435.38;1734847;81;21244;-57
2022/06/10 11:49:14;;;;;;;24.18;21.57;;;;;;;28.92;100.00;99434.81;1735551;81;21555;-55
2022/06/10 11:52:01;;;;;;;5.65;5.00;;;;;;;28.89;100.00;99432.98;1727747;81;21105;-58
2022/06/10 11:54:42;;;;;;;12.43;11.20;;;;;;;28.88;100.00;99427.11;1707614;82;21634;-57
2022/06/10 12:00:38;;;;;;;6.03;4.65;;;;;;;28.86;100.00;99431.47;1706309;82;21181;-58
2022/06/10 12:03:49;;;;;;;5.92;4.58;;;;;;;28.90;100.00;99430.55;1705168;82;21069;-54
2022/06/10 12:06:38;;;;;;;6.03;4.70;;;;;;;28.93;100.00;99434.28;1711574;82;21553;-53
2022/06/10 12:09:18;;;;;;;5.60;4.97;;;;;;;28.96;100.00;99431.13;1735248;81;21065;-54
2022/06/10 12:11:50;;;;;;;5.20;4.60;;;;;;;28.98;100.00;99429.02;1697361;81;21350;-57
2022/06/10 12:14:43;;;;;;;4.67;4.10;;;;;;;28.98;100.00;99420.71;1710625;82;21148;-55
2022/06/10 12:17:39;;;;;;;5.15;4.58;;;;;;;28.97;100.00;99423.16;1705006;81;21092;-56
2022/06/10 12:20:41;;;;;;;6.25;5.30;;;;;;;28.98;100.00;99420.71;1708417;82;21052;-56